createdAt,value
2022-10-23T00:01:51.641Z,13.09
2022-10-23T00:04:25.603Z,13.09
2022-10-23T00:06:55.095Z,13.09
2022-10-23T00:09:24.840Z,13.08
2022-10-23T00:11:53.612Z,13.08
2022-10-23T00:14:24.097Z,13.09
2022-10-23T00:16:52.306Z,13.07
2022-10-23T00:19:22.376Z,13.07
2022-10-23T00:21:50.776Z,13.06
2022-10-23T00:24:20.112Z,13.05
2022-10-23T00:26:52.481Z,13.05
2022-10-23T00:29:21.954Z,13.05
2022-10-23T00:31:51.289Z,13.05
2022-10-23T00:34:20.528Z,13.05
2022-10-23T00:36:49.855Z,13.03
2022-10-23T00:39:19.289Z,13.03
2022-10-23T00:41:48.769Z,13.02
2022-10-23T00:44:23.895Z,13.00
2022-10-23T00:46:53.250Z,12.98
2022-10-23T00:49:23.381Z,12.95
2022-10-23T00:51:54.423Z,12.96
2022-10-23T00:54:25.884Z,12.93
2022-10-23T00:57:00.110Z,12.92
2022-10-23T00:59:30.459Z,12.89
2022-10-23T01:02:00.328Z,12.88
2022-10-23T01:04:30.356Z,12.85
2022-10-23T01:07:15.313Z,12.83
2022-10-23T01:10:02.907Z,12.80
2022-10-23T01:12:40.551Z,12.78
2022-10-23T01:15:12.584Z,12.78
2022-10-23T01:17:53.020Z,12.76
2022-10-23T01:20:32.587Z,12.75
2022-10-23T01:23:19.677Z,12.74
2022-10-23T01:26:08.241Z,12.74
2022-10-23T01:28:46.182Z,12.74
2022-10-23T01:31:18.704Z,12.74
2022-10-23T01:33:51.648Z,12.74
2022-10-23T01:36:29.109Z,12.71
2022-10-23T01:39:07.422Z,12.70
2022-10-23T01:41:40.698Z,12.69
2022-10-23T01:44:40.185Z,12.67
2022-10-23T01:47:10.502Z,12.65
2022-10-23T01:49:56.537Z,12.62
2022-10-23T01:52:26.485Z,12.61
2022-10-23T01:54:59.504Z,12.59
2022-10-23T01:57:31.813Z,12.58
2022-10-23T02:00:04.447Z,12.55
2022-10-23T02:02:37.751Z,12.56
2022-10-23T02:05:10.418Z,12.54
2022-10-23T02:07:39.641Z,12.52
2022-10-23T02:10:09.790Z,12.52
2022-10-23T02:13:03.680Z,12.50
2022-10-23T02:15:33.221Z,12.49
2022-10-23T02:18:05.244Z,12.52
2022-10-23T02:20:41.401Z,12.49
2022-10-23T02:23:38.291Z,12.48
2022-10-23T02:26:10.723Z,12.49
2022-10-23T02:28:47.267Z,12.50
2022-10-23T02:31:17.470Z,12.51
2022-10-23T02:33:47.516Z,12.50
2022-10-23T02:36:17.076Z,12.50
2022-10-23T02:38:48.086Z,12.50
2022-10-23T02:41:20.237Z,12.50
2022-10-23T02:43:58.872Z,12.51
2022-10-23T02:46:51.165Z,12.51
2022-10-23T02:49:26.160Z,12.51
2022-10-23T02:52:02.425Z,12.51
2022-10-23T02:54:39.389Z,12.51
2022-10-23T02:57:11.576Z,12.53
2022-10-23T02:59:47.190Z,12.53
2022-10-23T03:02:22.310Z,12.52
2022-10-23T03:04:53.280Z,12.53
2022-10-23T03:07:22.498Z,12.54
2022-10-23T03:09:52.798Z,12.55
2022-10-23T03:12:23.857Z,12.55
2022-10-23T03:14:53.349Z,12.55
2022-10-23T03:17:22.738Z,12.55
2022-10-23T03:19:57.026Z,12.55
2022-10-23T03:22:26.681Z,12.55
2022-10-23T03:24:56.109Z,12.54
2022-10-23T03:27:25.855Z,12.54
2022-10-23T03:29:58.767Z,12.53
2022-10-23T03:32:28.573Z,12.51
2022-10-23T03:34:57.762Z,12.48
2022-10-23T03:37:27.381Z,12.46
2022-10-23T03:39:56.940Z,12.44
2022-10-23T03:42:26.076Z,12.42
2022-10-23T03:44:55.482Z,12.41
2022-10-23T03:47:25.062Z,12.38
2022-10-23T03:49:54.676Z,12.36
2022-10-23T03:52:25.901Z,12.33
2022-10-23T03:54:55.307Z,12.31
2022-10-23T03:57:24.868Z,12.29
2022-10-23T03:59:54.160Z,12.25
2022-10-23T04:02:23.304Z,12.21
2022-10-23T04:04:55.338Z,12.19
2022-10-23T04:07:24.766Z,12.17
2022-10-23T04:09:53.122Z,12.14
2022-10-23T04:12:22.175Z,12.12
2022-10-23T04:14:53.585Z,12.11
2022-10-23T04:17:24.242Z,12.11
2022-10-23T04:19:52.822Z,12.10
2022-10-23T04:22:24.750Z,12.11
2022-10-23T04:24:57.353Z,12.11
2022-10-23T04:27:26.330Z,12.12
2022-10-23T04:29:58.277Z,12.13
2022-10-23T04:32:28.678Z,12.12
2022-10-23T04:34:57.795Z,12.13
2022-10-23T04:37:26.957Z,12.13
2022-10-23T05:09:59.036Z,12.22
2022-10-23T05:12:33.577Z,12.24
2022-10-23T05:15:02.631Z,12.24
2022-10-23T05:17:38.091Z,12.25
2022-10-23T05:20:10.025Z,12.27
2022-10-23T05:22:42.312Z,12.26
2022-10-23T05:25:13.960Z,12.26
2022-10-23T05:27:48.218Z,12.27
2022-10-23T05:30:18.446Z,12.26
2022-10-23T05:32:47.690Z,12.25
2022-10-23T05:35:19.521Z,12.25
2022-10-23T05:37:52.790Z,12.25
2022-10-23T05:40:29.542Z,12.25
2022-10-23T05:43:09.275Z,12.26
2022-10-23T05:46:06.601Z,12.30
2022-10-23T05:48:56.418Z,12.32
2022-10-23T05:51:45.297Z,12.36
2022-10-23T05:54:34.777Z,12.39
2022-10-23T05:57:26.350Z,12.42
2022-10-23T05:59:55.599Z,12.46
2022-10-23T06:02:44.477Z,12.48
2022-10-23T06:05:23.268Z,12.51
2022-10-23T06:08:14.040Z,12.53
2022-10-23T06:10:43.681Z,12.55
2022-10-23T06:13:15.530Z,12.57
2022-10-23T06:15:45.238Z,12.61
2022-10-23T06:18:22.381Z,12.63
2022-10-23T06:20:56.436Z,12.64
2022-10-23T06:23:31.115Z,12.68
2022-10-23T06:26:03.578Z,12.72
2022-10-23T06:28:39.050Z,12.78
2022-10-23T06:31:08.998Z,12.82
2022-10-23T06:33:38.161Z,12.86
2022-10-23T06:36:10.750Z,12.91
2022-10-23T06:38:42.262Z,12.94
2022-10-23T06:41:16.780Z,12.96
2022-10-23T06:43:52.022Z,12.99
2022-10-23T06:46:33.385Z,13.02
2022-10-23T06:49:26.397Z,13.06
2022-10-23T06:51:55.819Z,13.11
2022-10-23T06:54:25.382Z,13.16
2022-10-23T06:57:20.839Z,13.23
2022-10-23T06:59:51.143Z,13.28
2022-10-23T07:02:20.912Z,13.31
2022-10-23T07:04:50.921Z,13.35
2022-10-23T07:07:20.402Z,13.38
2022-10-23T07:09:53.227Z,13.42
2022-10-23T07:12:30.219Z,13.46
2022-10-23T07:15:22.396Z,13.48
2022-10-23T07:17:52.071Z,13.49
2022-10-23T07:20:21.651Z,13.49
2022-10-23T07:22:52.412Z,13.49
2022-10-23T07:25:27.822Z,13.50
2022-10-23T07:27:57.371Z,13.48
2022-10-23T07:30:27.474Z,13.45
2022-10-23T07:32:57.569Z,13.45
2022-10-23T07:35:56.264Z,13.48
2022-10-23T07:38:29.131Z,13.50
2022-10-23T07:40:59.609Z,13.51
2022-10-23T07:43:29.379Z,13.53
2022-10-23T07:45:58.998Z,13.56
2022-10-23T07:48:34.032Z,13.59
2022-10-23T07:51:08.683Z,13.62
2022-10-23T07:53:41.306Z,13.65
2022-10-23T07:56:26.516Z,13.72
2022-10-23T07:59:23.230Z,13.82
2022-10-23T08:01:56.843Z,13.89
2022-10-23T08:04:33.373Z,13.98
2022-10-23T08:07:08.367Z,14.14
2022-10-23T08:09:41.980Z,14.38
2022-10-23T08:12:13.714Z,14.57
2022-10-23T08:14:42.964Z,14.59
2022-10-23T08:17:14.071Z,14.56
2022-10-23T08:20:04.089Z,14.57
2022-10-23T08:22:39.434Z,14.69
2022-10-23T08:25:08.749Z,14.84
2022-10-23T08:27:38.901Z,15.04
2022-10-23T08:30:07.930Z,15.26
2022-10-23T08:32:37.226Z,15.34
2022-10-23T08:35:06.997Z,15.33
2022-10-23T08:37:36.324Z,15.35
2022-10-23T08:40:04.865Z,15.35
2022-10-23T08:43:15.595Z,15.32
2022-10-23T08:45:58.732Z,15.31
2022-10-23T08:49:18.854Z,15.29
2022-10-23T08:51:57.995Z,15.32
2022-10-23T08:54:29.265Z,15.33
2022-10-23T08:57:10.009Z,15.36
2022-10-23T08:59:46.181Z,15.45
2022-10-23T09:02:17.591Z,15.76
2022-10-23T09:04:48.868Z,16.11
2022-10-23T09:07:20.621Z,16.45
2022-10-23T09:10:09.912Z,16.78
2022-10-23T09:12:41.908Z,16.92
2022-10-23T09:15:10.879Z,17.21
2022-10-23T09:17:41.732Z,17.52
2022-10-23T09:20:24.140Z,17.57
2022-10-23T09:23:00.868Z,17.32
2022-10-23T09:25:32.554Z,17.04
2022-10-23T09:28:05.325Z,16.97
2022-10-23T09:30:37.285Z,17.16
2022-10-23T09:33:25.343Z,17.48
2022-10-23T09:35:58.260Z,17.75
2022-10-23T09:38:31.992Z,18.03
2022-10-23T09:41:14.075Z,18.24
2022-10-23T09:43:45.510Z,18.42
2022-10-23T09:46:15.678Z,18.55
2022-10-23T09:48:45.673Z,18.74
2022-10-23T09:51:19.298Z,18.65
2022-10-23T09:53:55.845Z,18.47
2022-10-23T09:56:25.030Z,18.46
2022-10-23T09:59:01.944Z,18.34
2022-10-23T10:01:39.120Z,18.16
2022-10-23T10:04:42.592Z,18.08
2022-10-23T10:07:21.518Z,18.03
2022-10-23T10:09:53.215Z,17.91
2022-10-23T10:12:40.481Z,17.80
2022-10-23T10:15:18.540Z,17.78
2022-10-23T10:18:07.800Z,17.70
2022-10-23T10:20:44.467Z,17.68
2022-10-23T10:23:29.656Z,17.69
2022-10-23T10:26:01.515Z,17.62
2022-10-23T10:28:30.884Z,17.71
2022-10-23T10:31:22.250Z,17.97
2022-10-23T10:34:08.332Z,18.27
2022-10-23T10:36:49.145Z,18.32
2022-10-23T10:39:33.424Z,18.16
2022-10-23T10:42:18.573Z,18.14
2022-10-23T10:44:52.571Z,18.09
2022-10-23T10:47:39.284Z,18.12
2022-10-23T10:50:19.375Z,18.29
2022-10-23T10:53:19.083Z,18.38
2022-10-23T10:55:50.673Z,18.40
2022-10-23T10:58:24.881Z,18.37
2022-10-23T11:00:57.230Z,18.25
2022-10-23T11:03:39.140Z,18.14
2022-10-23T11:06:18.961Z,18.39
2022-10-23T11:08:57.591Z,18.74
2022-10-23T11:11:38.603Z,19.01
2022-10-23T11:14:34.939Z,19.08
2022-10-23T11:17:17.314Z,19.28
2022-10-23T11:20:15.043Z,19.51
2022-10-23T11:22:51.563Z,19.68
2022-10-23T11:25:23.629Z,19.89
2022-10-23T11:27:58.099Z,20.13
2022-10-23T11:30:36.570Z,20.43
2022-10-23T11:33:09.558Z,20.54
2022-10-23T11:35:46.004Z,20.40
2022-10-23T11:38:19.210Z,20.15
2022-10-23T11:43:28.691Z,19.61
2022-10-23T11:45:58.560Z,19.35
2022-10-23T11:48:40.257Z,19.10
2022-10-23T11:51:36.129Z,18.87
2022-10-23T11:54:07.531Z,18.85
2022-10-23T11:56:37.878Z,19.03
2022-10-23T11:59:23.103Z,19.00
2022-10-23T12:01:54.345Z,18.89
2022-10-23T12:04:33.120Z,18.99
2022-10-23T12:07:15.506Z,19.07
2022-10-23T12:09:45.534Z,19.01
2022-10-23T12:12:27.511Z,18.87
2022-10-23T12:15:08.529Z,18.98
2022-10-23T12:17:40.314Z,19.16
2022-10-23T12:20:11.331Z,19.33
2022-10-23T12:22:40.744Z,19.48
2022-10-23T12:25:16.579Z,19.61
2022-10-23T12:27:58.717Z,19.78
2022-10-23T12:30:39.803Z,19.93
2022-10-23T12:33:15.151Z,20.13
2022-10-23T12:35:47.960Z,20.22
2022-10-23T12:38:25.830Z,20.29
2022-10-23T12:41:01.715Z,20.39
2022-10-23T12:43:32.457Z,20.63
2022-10-23T12:46:21.716Z,20.67
2022-10-23T12:48:52.039Z,20.70
2022-10-23T12:51:27.999Z,20.77
2022-10-23T12:53:57.205Z,20.76
2022-10-23T12:56:28.516Z,20.78
2022-10-23T12:59:02.239Z,20.82
2022-10-23T13:01:33.563Z,20.84
2022-10-23T13:04:08.382Z,20.90
2022-10-23T13:06:39.934Z,20.93
2022-10-23T13:09:19.107Z,20.98
2022-10-23T13:12:01.173Z,20.99
2022-10-23T13:14:44.520Z,20.90
2022-10-23T13:17:14.744Z,20.84
2022-10-23T13:19:44.547Z,20.89
2022-10-23T13:22:18.851Z,20.93
2022-10-23T13:24:47.564Z,21.03
2022-10-23T13:27:44.158Z,20.97
2022-10-23T13:30:30.181Z,20.91
2022-10-23T13:33:01.261Z,21.04
2022-10-23T13:35:30.581Z,21.14
2022-10-23T13:38:10.341Z,21.09
2022-10-23T13:40:39.964Z,20.94
2022-10-23T13:43:15.935Z,20.93
2022-10-23T13:45:47.138Z,21.01
2022-10-23T13:48:16.501Z,21.13
2022-10-23T13:50:45.912Z,21.25
2022-10-23T13:53:15.397Z,21.34
2022-10-23T13:55:47.402Z,21.31
2022-10-23T13:58:19.344Z,21.26
2022-10-23T14:00:50.105Z,21.05
2022-10-23T14:03:18.973Z,20.91
2022-10-23T14:05:49.056Z,21.03
2022-10-23T14:08:19.400Z,21.04
2022-10-23T14:10:49.213Z,21.03
2022-10-23T14:13:17.466Z,21.00
2022-10-23T14:15:56.670Z,20.96
2022-10-23T14:18:25.901Z,20.99
2022-10-23T14:20:54.898Z,21.01
2022-10-23T14:23:24.442Z,20.97
2022-10-23T14:25:53.396Z,20.95
2022-10-23T14:28:22.286Z,20.84
2022-10-23T14:30:52.175Z,20.75
2022-10-23T14:33:21.811Z,20.52
2022-10-23T14:35:51.549Z,20.51
2022-10-23T14:38:20.999Z,20.57
2022-10-23T14:40:50.578Z,20.63
2022-10-23T14:43:20.034Z,20.66
2022-10-23T14:45:49.218Z,20.61
2022-10-23T14:48:19.284Z,20.43
2022-10-23T14:50:50.909Z,20.23
2022-10-23T14:53:20.313Z,20.01
2022-10-23T14:55:49.241Z,19.86
2022-10-23T14:58:18.750Z,19.68
2022-10-23T15:00:57.533Z,19.50
2022-10-23T15:03:27.967Z,19.21
2022-10-23T15:05:57.308Z,18.94
2022-10-23T15:08:26.858Z,18.72
2022-10-23T15:11:00.036Z,18.43
2022-10-23T15:13:30.059Z,18.06
2022-10-23T15:16:06.195Z,17.84
2022-10-23T15:18:39.339Z,17.64
2022-10-23T15:21:09.280Z,17.37
2022-10-23T15:23:40.552Z,17.03
2022-10-23T15:26:11.965Z,16.70
2022-10-23T15:28:41.303Z,16.54
2022-10-23T15:31:24.610Z,16.41
2022-10-23T15:33:53.986Z,16.26
2022-10-23T15:36:23.429Z,16.06
2022-10-23T15:38:52.886Z,15.82
2022-10-23T15:41:27.831Z,15.64
2022-10-23T15:43:56.197Z,15.56
2022-10-23T15:46:25.347Z,15.49
2022-10-23T15:48:54.552Z,15.38
2022-10-23T15:51:23.948Z,15.26
2022-10-23T15:53:53.195Z,15.04
2022-10-23T15:56:22.217Z,14.83
2022-10-23T15:58:51.666Z,14.67
2022-10-23T16:01:21.227Z,14.52
2022-10-23T16:03:50.738Z,14.37
2022-10-23T16:06:21.868Z,14.22
2022-10-23T16:11:25.503Z,13.78
2022-10-23T16:13:55.545Z,13.56
2022-10-23T16:16:25.383Z,13.45
2022-10-23T16:18:54.536Z,13.33
2022-10-23T16:21:27.700Z,13.22
2022-10-23T16:23:58.287Z,13.11
2022-10-23T16:26:28.096Z,12.97
2022-10-23T16:28:59.238Z,12.88
2022-10-23T16:31:28.677Z,12.77
2022-10-23T16:34:01.328Z,12.69
2022-10-23T16:36:29.969Z,12.62
2022-10-23T16:39:16.197Z,12.51
2022-10-23T16:42:07.014Z,12.36
2022-10-23T16:44:59.331Z,12.24
2022-10-23T16:47:30.872Z,12.14
2022-10-23T16:50:01.427Z,12.07
2022-10-23T16:52:31.497Z,11.97
2022-10-23T16:55:00.712Z,11.89
2022-10-23T16:57:30.141Z,11.83
2022-10-23T16:59:59.167Z,11.76
2022-10-23T17:02:28.816Z,11.68
2022-10-23T17:04:58.018Z,11.59
2022-10-23T17:07:26.350Z,11.51
2022-10-23T17:09:55.411Z,11.45
2022-10-23T17:12:24.768Z,11.39
2022-10-23T17:14:53.898Z,11.32
2022-10-23T17:17:23.275Z,11.24
2022-10-23T17:19:52.362Z,11.15
2022-10-23T17:22:21.658Z,10.96
2022-10-23T17:24:53.776Z,10.82
2022-10-23T17:27:23.730Z,10.75
2022-10-23T17:29:52.608Z,10.65
2022-10-23T17:32:23.974Z,10.55
2022-10-23T17:34:53.320Z,10.50
2022-10-23T17:37:23.123Z,10.44
2022-10-23T17:39:52.206Z,10.37
2022-10-23T17:42:21.883Z,10.29
2022-10-23T17:44:51.618Z,10.23
2022-10-23T17:47:21.251Z,10.17
2022-10-23T17:49:50.932Z,10.12
2022-10-23T17:52:20.310Z,10.08
2022-10-23T17:54:52.492Z,10.03
2022-10-23T17:59:57.157Z,9.99
2022-10-23T18:02:26.907Z,9.96
2022-10-23T18:04:56.407Z,9.91
2022-10-23T18:07:26.964Z,9.86
2022-10-23T18:09:55.944Z,9.78
2022-10-23T18:12:25.264Z,9.72
2022-10-23T18:14:56.987Z,9.67
2022-10-23T18:17:27.841Z,9.60
2022-10-23T18:20:01.712Z,9.54
2022-10-23T18:22:33.586Z,9.48
2022-10-23T18:25:03.000Z,9.40
2022-10-23T18:27:31.921Z,9.35
2022-10-23T18:30:01.622Z,9.27
2022-10-23T18:32:30.604Z,9.21
2022-10-23T18:34:59.985Z,9.18
2022-10-23T18:37:31.777Z,9.16
2022-10-23T18:40:02.737Z,9.13
2022-10-23T18:42:31.834Z,9.11
2022-10-23T18:45:01.389Z,9.07
2022-10-23T18:47:30.187Z,9.04
2022-10-23T18:49:59.593Z,9.00
2022-10-23T18:52:29.018Z,8.90
2022-10-23T18:54:58.150Z,8.83
2022-10-23T18:57:26.486Z,8.74
2022-10-23T18:59:58.790Z,8.73
2022-10-23T19:02:28.359Z,8.72
2022-10-23T19:04:56.827Z,8.68
2022-10-23T19:07:26.457Z,8.61
2022-10-23T19:09:56.011Z,8.50
2022-10-23T19:12:25.312Z,8.42
2022-10-23T19:14:56.092Z,8.37
2022-10-23T19:17:30.417Z,8.36
2022-10-23T19:20:03.329Z,8.33
2022-10-23T19:22:34.437Z,8.25
2022-10-23T19:25:11.009Z,8.14
2022-10-23T19:27:40.295Z,8.03
2022-10-23T19:30:13.862Z,7.94
2022-10-23T19:32:46.150Z,7.83
2022-10-23T19:35:16.708Z,7.76
2022-10-23T19:37:46.581Z,7.68
2022-10-23T19:40:16.247Z,7.63
2022-10-23T19:42:45.670Z,7.54
2022-10-23T19:45:15.070Z,7.47
2022-10-23T19:47:46.630Z,7.41
2022-10-23T19:50:16.328Z,7.34
2022-10-23T19:52:45.288Z,7.28
2022-10-23T19:55:14.824Z,7.21
2022-10-23T19:57:43.824Z,7.17
2022-10-23T20:00:14.397Z,7.12
2022-10-23T20:02:46.371Z,7.11
2022-10-23T20:05:18.494Z,7.07
2022-10-23T20:07:48.962Z,7.04
2022-10-23T20:10:18.800Z,7.05
2022-10-23T20:12:56.883Z,7.06
2022-10-23T20:15:32.914Z,7.05
2022-10-23T20:18:01.168Z,7.01
2022-10-23T20:20:30.186Z,7.00
2022-10-23T20:22:59.443Z,6.99
2022-10-23T20:25:28.853Z,6.99
2022-10-23T20:27:58.121Z,6.98
2022-10-23T20:30:27.113Z,6.98
2022-10-23T20:32:56.742Z,6.97
2022-10-23T20:35:26.152Z,6.95
2022-10-23T20:37:55.476Z,6.95
2022-10-23T20:40:24.617Z,6.96
2022-10-23T20:42:53.976Z,6.97
2022-10-23T20:45:24.712Z,6.97
2022-10-23T20:47:54.130Z,6.98
2022-10-23T20:50:24.234Z,6.99
2022-10-23T20:52:53.590Z,6.98
2022-10-23T20:55:22.600Z,6.99
2022-10-23T20:57:51.941Z,6.99
2022-10-23T21:00:20.919Z,6.99
2022-10-23T21:02:51.377Z,6.94
2022-10-23T21:05:21.472Z,6.92
2022-10-23T21:07:50.853Z,6.90
2022-10-23T21:10:19.894Z,6.90
2022-10-23T21:12:48.978Z,6.86
2022-10-23T21:15:18.122Z,6.80
2022-10-23T21:17:50.100Z,6.73
2022-10-23T21:20:19.312Z,6.66
2022-10-23T21:22:47.630Z,6.60
2022-10-23T21:25:16.676Z,6.57
2022-10-23T21:27:46.876Z,6.56
2022-10-23T21:30:16.380Z,6.56
2022-10-23T21:32:45.461Z,6.57
2022-10-23T21:35:14.561Z,6.54
2022-10-23T21:37:43.775Z,6.53
2022-10-23T21:40:13.064Z,6.49
2022-10-23T21:42:42.140Z,6.45
2022-10-23T21:45:11.238Z,6.40
2022-10-23T21:47:40.408Z,6.36
2022-10-23T21:50:09.576Z,6.36
2022-10-23T21:52:38.669Z,6.33
2022-10-23T21:55:07.783Z,6.29
2022-10-23T21:57:36.836Z,6.27
2022-10-23T22:00:06.118Z,6.26
2022-10-23T22:02:43.310Z,6.24
2022-10-23T22:05:12.910Z,6.20
2022-10-23T22:07:47.220Z,6.15
2022-10-23T22:10:16.192Z,6.13
2022-10-23T22:12:45.130Z,6.14
2022-10-23T22:15:13.342Z,6.13
2022-10-23T22:17:42.939Z,6.14
2022-10-23T22:20:12.186Z,6.16
2022-10-23T22:22:41.058Z,6.17
2022-10-23T22:25:10.060Z,6.14
2022-10-23T22:27:38.969Z,6.12
2022-10-23T22:30:08.060Z,6.07
2022-10-23T22:32:37.034Z,5.99
2022-10-23T22:35:05.522Z,5.89
2022-10-23T22:37:34.515Z,5.77
2022-10-23T22:40:04.085Z,5.69
2022-10-23T22:42:33.397Z,5.62
2022-10-23T22:45:02.905Z,5.59
2022-10-23T22:47:32.002Z,5.58
2022-10-23T22:50:03.253Z,5.58
2022-10-23T22:52:32.455Z,5.57
2022-10-23T22:55:02.123Z,5.56
2022-10-23T22:57:31.259Z,5.56
2022-10-23T23:00:00.486Z,5.58
2022-10-23T23:02:29.420Z,5.61
2022-10-23T23:04:58.937Z,5.63
2022-10-23T23:07:28.527Z,5.60
2022-10-23T23:09:57.786Z,5.63
2022-10-23T23:12:27.183Z,5.68
2022-10-23T23:14:56.396Z,5.71
2022-10-23T23:17:24.684Z,5.72
2022-10-23T23:19:53.894Z,5.75
2022-10-23T23:22:23.146Z,5.78
2022-10-23T23:24:52.357Z,5.79
2022-10-23T23:27:21.640Z,5.72
2022-10-23T23:29:50.025Z,5.72
2022-10-23T23:32:19.180Z,5.72
2022-10-23T23:34:48.266Z,5.72
2022-10-23T23:37:17.512Z,5.69
2022-10-23T23:39:46.642Z,5.70
2022-10-23T23:42:16.266Z,5.73
2022-10-23T23:44:55.816Z,5.74
2022-10-23T23:47:33.653Z,5.75
2022-10-23T23:50:03.616Z,5.78
2022-10-23T23:52:33.128Z,5.79
2022-10-23T23:55:02.649Z,5.83
2022-10-23T23:57:32.201Z,5.84
